航空気象通報

ウインドサーファーのための航空気象通報による風予報です。

12/31-1/1の航空気象通報(国内、海外)

2009年12月31日 20時55分13秒 | TAF
羽田空港
RJTT 310840Z 3109/0112 32016KT 9999 FEW030
TEMPO 3109/3111 32022G32KT
日本時間31日18時-1日21時:320度から16ノット
但し、31日18-20時の間:320度から22ノット、突風32ノット


静岡空港
TAF RJNS 310847Z 3109/0112 28018KT 9999 FEW025 SCT045
TEMPO 3109/3112 28020G32KT
TEMPO 3117/3121 28020G32KT
BECMG 3121/3124 28026G38KT
日本時間31日18時-1日06時:280度から18ノットの風
但し、31日18-21時の間:一時、280度から20ノット、突風32ノット
但し、1日02-06時の間:一時、280度から20ノット、突風32ノット
但し、1日06-09時の間:一時、280度から26ノット、突風38ノット
06-09時:風が変化
09-21時:280度から26ノット、突風38ノット


那覇空港
TAF ROAH 310839Z 3109/0112 36016KT 9999 FEW030 BKN045
BECMG 0109/0112 04006KT
日本時間31日18時-1日18時:360度から16ノットの風
18-21時:風が変化
21時:040度から6ノットの風


マウイのカフルイ空港
PHOG 311141Z 3112/0112 14004KT P6SM FEW035
FM312000 20008KT P6SM FEW035 SCT050
FM010600 12004KT P6SM SKC
ハワイ時間31日02-10時:140度から4ノットの風
10-20時:200度から8ノットの風
20時-1に値02時:120度から4ノットの風


サイパン空港
PGSN 311136Z 3112/0112 VRB07KT P6SM SCT025
マリアナ時間31日22時-1日22時:風向不定7ノットの風
コメント

12/30-12/31の航空気象通報(国内、海外)

2009年12月30日 19時16分40秒 | TAF
羽田空港
TAF RJTT 300838Z 3009/3112 21016KT 9999 FEW030
TEMPO 3009/3012 21020G30KT
BECMG 3018/3021 30008KT
BECMG 3103/3106 32018KT
TEMPO 3103/3109 32020G30KT
日本時間30日18時-31日03時:210度から16ノットの風
但し、30日18-21時の間:一時、210度から20ノット、突風30ノット
31日03-06時:風が変化
06-12時:300度から8ノットの風
12-15時:風が変化
15-21時:320度から18ノットの風
但し、12-18時の間:一時、320度から20ノット、突風30ノット


富士山静岡空港
TAF RJNS 300839Z 3009/3112 27008KT 9999 FEW030
TEMPO 3012/3015 27016G26KT
BECMG 3015/3017 27018G28KT
TEMPO 3100/3106 27028G38KT
日本時間30日18-24時:270度から8ノットの風
但し、30日21-24時の間:一時、270度から16ノット、突風26ノット
31日00-02時:風が変化
02-21時:270度から18ノット、突風28ノット
但し、09-15時の間:一時、270度から28ノット、突風38ノット


那覇空港
TAF ROAH 300838Z 3009/3112 01018KT 9999 SCT025 SCT045
日本時間30日18時-31日21時:010度から18ノットの風


マウイのカフルイ空港
PHOG 301120Z 3012/3112 18006KT P6SM FEW045
FM301700 19007KT P6SM FEW045
FM310500 VRB05KT P6SM SCT050
ハワイ時間30日02-07時:180度から6ノットの風
07-19時:190度から7ノットの風
19時-31日02時:風向不定5ノットの風


サイパン空港
PGSN 301138Z 3012/3112 09010KT P6SM FEW020
マリアナ時間30日22時-31日22時:090度から10ノットの風

コメント

12/29-12/30の航空気象通報(国内、海外)

2009年12月29日 21時48分09秒 | TAF
羽田空港
TAF AMD RJTT 291129Z 2911/3012 08014KT 9999 FEW030
BECMG 2913/2915 04008KT
BECMG 3000/3003 18006KT
BECMG 3003/3006 21016KT
TEMPO 3006/3012 21020G30KT
日本時間29日20-22時:080度から14ノットの風
22-24時:風が変化
30日00-09時:040度から8ノットの風
09-12時:風が変化
12時:180度から6ノットの風
12-15時:風が変化
15-21時:210度から16ノットの風
但し、15-21時の間:一時、210度から20ノット、突風30ノット


富士山静岡空港
TAF RJNS 290840Z 2909/3012 32008KT 9999 FEW030
BECMG 3000/3003 24010KT
日本時間29日18時-30日09時:320度から8ノットの風
09-12時:風が変化
12-21時:240度から10ノットの風


那覇空港
TAF ROAH 290841Z 2909/3012 11005KT 9999 FEW025
BECMG 2918/2921 01004KT
TEMPO 2921/3003 4000 SHRA
BECMG 3003/3006 36016KT
日本時間29日18時-30日03時:110度から5ノットの風
03-06時:風が変化
06-12時:010度から4ノットの風
12-15時:風が変化
15-21時:360度から16ノットの風

但し、30日06-12時の間:一時、

マウイのカフルイ空港
PHOG 291132Z 2912/3012 15004KT P6SM SKC
FM292000 02007KT P6SM SCT050
FM300200 VRB04KT P6SM FEW050
FM300500 15005KT P6SM FEW050
ハワイ時間29日02-10時:150度から4ノットの風
10-16時:020度から7ノットの風
16-19時:風向不定4ノットの風
19時-30日02時:150度から5ノットの風


サイパン空港
PGSN 291122Z 2912/3012 09009KT P6SM SCT018
FM300100 09015G22KT P6SM SCT022
マリアナ時間29日22時-30日11時:090度から9ノットの風
09-21時:090度から15ノット、突風22ノット

コメント

12/28-12/29の航空気象通報(国内、海外)

2009年12月28日 23時41分34秒 | TAF
羽田空港
TAF RJTT 280841Z 2809/2912 34016KT 9999 FEW030
TEMPO 2809/2812 34020G30KT
BECMG 2903/2906 05008KT
日本時間28日18時-29日12時:340度から16ノットの風
但し、28日18-21時の間:一時、340度から20ノット、突風30ノット
29日12-15時:風が変化
15-21時:050度から8ノットの風


富士山静岡空港
TAF RJNS 280844Z 2809/2912 26018KT 9999 FEW030
TEMPO 2809/2812 26020G30KT
BECMG 2815/2817 28008KT
日本時間28日18-24時:260度から18ノットの風
但し、28日18-21時の間:260度から20ノット、突風30ノット
29日00-02時:風が変化
02-21時:280度から8ノットの風


那覇空港
TAF ROAH 280836Z 2809/2912 03007KT 9999 FEW020 BKN045
日本時間28日18時-29日21時:030度から7ノットの風


マウイのカフルイ空港
PHOG 281141Z 2812/2912 14008KT P6SM SCT060
FM282000 03012KT P6SM FEW030 SCT050
FM290500 16007KT P6SM FEW040
ハワイ時間28日02-10時:140度から8ノットの風
10-19時:030度から12ノットの風
19時-29日02時:160度から7ノットの風


サイパン空港
PGSN 281134Z 2812/2912 08008KT P6SM VCSH FEW020 SCT050
FM282300 07012G22KT P6SM VCSH FEW018 SCT040
マリアナ時間28日22時-29日09時:080度から8ノットの風
09-21時:070度から12ノット、突風22ノット

コメント

12/27-12/28の航空気象通報(国内、海外)

2009年12月27日 21時57分23秒 | TAF
羽田空港
TAF AMD RJTT 271150Z 2711/2812 04010KT 9999 -SHRA FEW030 BKN050
BECMG 2714/2716 32006KT
TEMPO 2715/2721 4000 -SHRA BR FEW006 BKN009 BKN015
BECMG 2806/2809 34016KT
TEMPO 2806/2812 34020G30KT
日本時間27日20-23時:040度から10ノットの風
23時-28日01時:風が変化
01-15時:320度から6ノット
15-18時:風が変化
18-21時:340度から16ノットの風
但し、15-21時の間:一時、340度から20ノット、突風30ノット


富士山静岡空港
TAF RJNS 270845Z 2709/2812 34004KT 9999 FEW030 BKN050
TEMPO 2721/2724 4000 SHRA BR FEW005 BKN008 BKN015
BECMG 2800/2803 28020KT
TEMPO 2803/2809 28024G34KT
日本時間27日18-28日09時:340度から4ノットの風
09-12時:風が変化
12-21時:280度から20ノットの風
但し、28日12-18時の間:280度から24ノット、突風34ノット


那覇空港
TAF ROAH 270845Z 2709/2812 36010KT 9999 FEW030 BKN045
日本時間27日18時-28日21時:360度から10ノットの風


マウイのカフルイ空港
PHOG 271139Z 2712/2812 14006KT P6SM FEW030
FM272000 35008KT P6SM FEW030 SCT050
FM280600 14006KT P6SM FEW030
ハワイ時間27日02-10時:140度から6ノットの風
10-20時:350度から8ノットの風
20時-28日02時:140度から6ノットの風


サイパン空港
PGSN 271120Z 2712/2812 08006KT P6SM VCSH FEW020 SCT050
FM272300 08011G20KT P6SM VCSH FEW018 SCT040
マリアナ時間27日22時-28日09時:080度から6ノットの風
09-21時:080度から11ノット、突風20ノット

コメント